Terminal Aerodrome Forecast
Issued by NWS Sioux Falls, SD

Home | Current Version | Previous Version | Graphics & Text | Print | Product List | Glossary On
Versions: 1 2 3 4 5 6 7 8 9 10 11 12 13 14 15 16 17 18
987
FTUS43 KFSD 252320
TAFHON
TAF
KHON 252320Z 2600/2624 20007KT P6SM VCTS SCT060CB
     FM260300 22004KT P6SM SCT120
     FM261500 28009KT P6SM FEW040
     FM262000 24007KT P6SM SCT200=

USA.gov is the U.S. government's official web portal to all federal, state and local government web resources and services.